sensor_id;sensor_type;location;lat;lon;timestamp;pressure;altitude;pressure_sealevel;temperature
68510;BMP180;55512;50.102;19.958;2022-07-26T00:01:03;98211.80;;;20.32
68510;BMP180;55512;50.102;19.958;2022-07-26T00:03:28;98207.40;;;20.30
68510;BMP180;55512;50.102;19.958;2022-07-26T00:05:54;98205.00;;;20.20
68510;BMP180;55512;50.102;19.958;2022-07-26T00:08:20;98199.00;;;20.10
68510;BMP180;55512;50.102;19.958;2022-07-26T00:10:48;98197.20;;;20.00
68510;BMP180;55512;50.102;19.958;2022-07-26T00:13:16;98184.60;;;19.90
68510;BMP180;55512;50.102;19.958;2022-07-26T00:15:44;98180.20;;;19.80
68510;BMP180;55512;50.102;19.958;2022-07-26T00:18:10;98183.60;;;19.70
68510;BMP180;55512;50.102;19.958;2022-07-26T00:20:35;98184.60;;;19.60
68510;BMP180;55512;50.102;19.958;2022-07-26T00:23:02;98176.80;;;19.60
68510;BMP180;55512;50.102;19.958;2022-07-26T00:25:28;98175.80;;;19.60
68510;BMP180;55512;50.102;19.958;2022-07-26T00:27:54;98167.40;;;19.58
68510;BMP180;55512;50.102;19.958;2022-07-26T00:30:20;98162.00;;;19.58
68510;BMP180;55512;50.102;19.958;2022-07-26T00:32:45;98161.40;;;19.50
68510;BMP180;55512;50.102;19.958;2022-07-26T00:35:11;98161.40;;;19.40
68510;BMP180;55512;50.102;19.958;2022-07-26T00:37:38;98163.40;;;19.30
68510;BMP180;55512;50.102;19.958;2022-07-26T00:40:05;98164.60;;;19.26
68510;BMP180;55512;50.102;19.958;2022-07-26T00:42:31;98163.80;;;19.24
68510;BMP180;55512;50.102;19.958;2022-07-26T00:44:58;98165.60;;;19.20
68510;BMP180;55512;50.102;19.958;2022-07-26T00:47:24;98163.20;;;19.20
68510;BMP180;55512;50.102;19.958;2022-07-26T00:49:50;98163.20;;;19.10
68510;BMP180;55512;50.102;19.958;2022-07-26T00:52:16;98159.00;;;19.10
68510;BMP180;55512;50.102;19.958;2022-07-26T00:54:44;98158.20;;;19.10
68510;BMP180;55512;50.102;19.958;2022-07-26T00:57:14;98162.80;;;18.98
68510;BMP180;55512;50.102;19.958;2022-07-26T00:59:40;98161.40;;;18.86
68510;BMP180;55512;50.102;19.958;2022-07-26T01:02:08;98164.40;;;18.80
68510;BMP180;55512;50.102;19.958;2022-07-26T01:04:35;98167.60;;;18.70
68510;BMP180;55512;50.102;19.958;2022-07-26T01:07:02;98164.20;;;18.70
68510;BMP180;55512;50.102;19.958;2022-07-26T01:09:29;98155.60;;;18.70
68510;BMP180;55512;50.102;19.958;2022-07-26T01:11:55;98149.20;;;18.80
68510;BMP180;55512;50.102;19.958;2022-07-26T01:14:22;98149.00;;;18.70
68510;BMP180;55512;50.102;19.958;2022-07-26T01:16:49;98148.40;;;18.70
68510;BMP180;55512;50.102;19.958;2022-07-26T01:19:15;98145.60;;;18.60
68510;BMP180;55512;50.102;19.958;2022-07-26T01:21:42;98139.60;;;18.60
68510;BMP180;55512;50.102;19.958;2022-07-26T01:24:08;98133.80;;;18.60
68510;BMP180;55512;50.102;19.958;2022-07-26T01:26:34;98135.60;;;18.60
68510;BMP180;55512;50.102;19.958;2022-07-26T01:28:59;98129.40;;;18.60
68510;BMP180;55512;50.102;19.958;2022-07-26T01:31:25;98127.40;;;18.62
68510;BMP180;55512;50.102;19.958;2022-07-26T01:33:51;98126.60;;;18.70
68510;BMP180;55512;50.102;19.958;2022-07-26T01:36:17;98123.20;;;18.60
68510;BMP180;55512;50.102;19.958;2022-07-26T01:38:43;98125.60;;;18.60
68510;BMP180;55512;50.102;19.958;2022-07-26T01:41:08;98124.80;;;18.50
68510;BMP180;55512;50.102;19.958;2022-07-26T01:43:35;98121.80;;;18.40
68510;BMP180;55512;50.102;19.958;2022-07-26T01:46:03;98122.40;;;18.40
68510;BMP180;55512;50.102;19.958;2022-07-26T01:48:30;98119.60;;;18.40
68510;BMP180;55512;50.102;19.958;2022-07-26T01:50:56;98114.40;;;18.40
68510;BMP180;55512;50.102;19.958;2022-07-26T01:53:21;98109.80;;;18.38
68510;BMP180;55512;50.102;19.958;2022-07-26T01:55:47;98107.60;;;18.32
68510;BMP180;55512;50.102;19.958;2022-07-26T01:58:12;98107.20;;;18.38
68510;BMP180;55512;50.102;19.958;2022-07-26T02:00:38;98103.40;;;18.40
68510;BMP180;55512;50.102;19.958;2022-07-26T02:03:04;98097.00;;;18.40
68510;BMP180;55512;50.102;19.958;2022-07-26T02:05:30;98095.20;;;18.40
68510;BMP180;55512;50.102;19.958;2022-07-26T02:07:56;98090.20;;;18.40
68510;BMP180;55512;50.102;19.958;2022-07-26T02:10:21;98088.40;;;18.32
68510;BMP180;55512;50.102;19.958;2022-07-26T02:12:48;98084.80;;;18.30
68510;BMP180;55512;50.102;19.958;2022-07-26T02:15:14;98081.40;;;18.20
68510;BMP180;55512;50.102;19.958;2022-07-26T02:17:41;98079.60;;;18.22
68510;BMP180;55512;50.102;19.958;2022-07-26T02:20:08;98073.80;;;18.20
68510;BMP180;55512;50.102;19.958;2022-07-26T02:22:34;98069.60;;;18.20
68510;BMP180;55512;50.102;19.958;2022-07-26T02:25:00;98071.40;;;18.20
68510;BMP180;55512;50.102;19.958;2022-07-26T02:27:25;98074.00;;;18.20
68510;BMP180;55512;50.102;19.958;2022-07-26T02:29:51;98080.20;;;18.18
68510;BMP180;55512;50.102;19.958;2022-07-26T02:32:17;98083.40;;;18.10
68510;BMP180;55512;50.102;19.958;2022-07-26T02:34:42;98086.60;;;18.10
68510;BMP180;55512;50.102;19.958;2022-07-26T02:37:08;98082.20;;;18.10
68510;BMP180;55512;50.102;19.958;2022-07-26T02:39:34;98085.00;;;18.10
68510;BMP180;55512;50.102;19.958;2022-07-26T02:42:01;98078.80;;;18.10
68510;BMP180;55512;50.102;19.958;2022-07-26T02:44:28;98076.20;;;18.10
68510;BMP180;55512;50.102;19.958;2022-07-26T02:46:54;98071.60;;;18.10
68510;BMP180;55512;50.102;19.958;2022-07-26T02:49:21;98068.40;;;18.10
68510;BMP180;55512;50.102;19.958;2022-07-26T02:51:47;98068.40;;;18.00
68510;BMP180;55512;50.102;19.958;2022-07-26T02:54:13;98073.00;;;17.96
68510;BMP180;55512;50.102;19.958;2022-07-26T02:56:39;98065.40;;;17.96
68510;BMP180;55512;50.102;19.958;2022-07-26T02:59:05;98060.40;;;18.00
68510;BMP180;55512;50.102;19.958;2022-07-26T03:01:32;98062.40;;;17.90
68510;BMP180;55512;50.102;19.958;2022-07-26T03:04:01;98058.60;;;17.90
68510;BMP180;55512;50.102;19.958;2022-07-26T03:06:26;98055.20;;;17.90
68510;BMP180;55512;50.102;19.958;2022-07-26T03:08:52;98048.20;;;17.90
68510;BMP180;55512;50.102;19.958;2022-07-26T03:11:17;98039.20;;;17.90
68510;BMP180;55512;50.102;19.958;2022-07-26T03:13:43;98037.80;;;17.80
68510;BMP180;55512;50.102;19.958;2022-07-26T03:16:09;98038.80;;;17.80
68510;BMP180;55512;50.102;19.958;2022-07-26T03:18:34;98036.40;;;17.80
68510;BMP180;55512;50.102;19.958;2022-07-26T03:21:01;98035.20;;;17.90
68510;BMP180;55512;50.102;19.958;2022-07-26T03:23:26;98038.20;;;17.90
68510;BMP180;55512;50.102;19.958;2022-07-26T03:25:52;98042.00;;;18.00
68510;BMP180;55512;50.102;19.958;2022-07-26T03:28:18;98035.20;;;18.00
68510;BMP180;55512;50.102;19.958;2022-07-26T03:30:44;98033.40;;;18.04
68510;BMP180;55512;50.102;19.958;2022-07-26T03:33:09;98031.80;;;18.00
68510;BMP180;55512;50.102;19.958;2022-07-26T03:35:35;98032.60;;;18.08
68510;BMP180;55512;50.102;19.958;2022-07-26T03:38:00;98028.20;;;18.10
68510;BMP180;55512;50.102;19.958;2022-07-26T03:40:26;98025.00;;;18.10
68510;BMP180;55512;50.102;19.958;2022-07-26T03:42:53;98025.60;;;18.10
68510;BMP180;55512;50.102;19.958;2022-07-26T03:45:19;98026.60;;;18.10
68510;BMP180;55512;50.102;19.958;2022-07-26T03:47:45;98026.20;;;18.20
68510;BMP180;55512;50.102;19.958;2022-07-26T03:50:13;98025.00;;;18.20
68510;BMP180;55512;50.102;19.958;2022-07-26T03:52:41;98017.20;;;18.30
68510;BMP180;55512;50.102;19.958;2022-07-26T03:55:07;98018.80;;;18.30
68510;BMP180;55512;50.102;19.958;2022-07-26T03:57:51;98017.00;;;18.38
68510;BMP180;55512;50.102;19.958;2022-07-26T04:00:17;98014.80;;;18.40
68510;BMP180;55512;50.102;19.958;2022-07-26T04:02:43;98007.20;;;18.40
68510;BMP180;55512;50.102;19.958;2022-07-26T04:05:09;98010.80;;;18.40
68510;BMP180;55512;50.102;19.958;2022-07-26T04:07:41;98008.20;;;18.40
68510;BMP180;55512;50.102;19.958;2022-07-26T04:10:08;98006.80;;;18.50
68510;BMP180;55512;50.102;19.958;2022-07-26T04:12:34;98009.20;;;18.50
68510;BMP180;55512;50.102;19.958;2022-07-26T04:15:00;98005.20;;;18.60
68510;BMP180;55512;50.102;19.958;2022-07-26T04:17:25;98007.80;;;18.60
68510;BMP180;55512;50.102;19.958;2022-07-26T04:19:51;98009.40;;;18.60
68510;BMP180;55512;50.102;19.958;2022-07-26T04:22:16;98009.00;;;18.68
68510;BMP180;55512;50.102;19.958;2022-07-26T04:24:42;98005.60;;;18.70
68510;BMP180;55512;50.102;19.958;2022-07-26T04:27:07;98002.00;;;18.80
68510;BMP180;55512;50.102;19.958;2022-07-26T04:29:33;98001.60;;;18.82
68510;BMP180;55512;50.102;19.958;2022-07-26T04:31:58;98004.00;;;18.90
68510;BMP180;55512;50.102;19.958;2022-07-26T04:34:24;98005.00;;;18.90
68510;BMP180;55512;50.102;19.958;2022-07-26T04:36:49;98006.60;;;18.90
68510;BMP180;55512;50.102;19.958;2022-07-26T04:39:15;98012.20;;;19.00
68510;BMP180;55512;50.102;19.958;2022-07-26T04:41:41;98009.00;;;19.00
68510;BMP180;55512;50.102;19.958;2022-07-26T04:44:06;98008.00;;;19.10
68510;BMP180;55512;50.102;19.958;2022-07-26T04:46:32;98005.20;;;19.20
68510;BMP180;55512;50.102;19.958;2022-07-26T04:48:57;98008.00;;;19.28
68510;BMP180;55512;50.102;19.958;2022-07-26T04:51:23;98008.40;;;19.38
68510;BMP180;55512;50.102;19.958;2022-07-26T04:53:50;98008.40;;;19.46
68510;BMP180;55512;50.102;19.958;2022-07-26T04:56:16;98008.00;;;19.50
68510;BMP180;55512;50.102;19.958;2022-07-26T04:58:41;98013.00;;;19.60
68510;BMP180;55512;50.102;19.958;2022-07-26T05:01:07;98013.80;;;19.70
68510;BMP180;55512;50.102;19.958;2022-07-26T05:03:32;98011.40;;;19.80
68510;BMP180;55512;50.102;19.958;2022-07-26T05:05:59;98010.40;;;19.94
68510;BMP180;55512;50.102;19.958;2022-07-26T05:08:24;98010.20;;;20.10
68510;BMP180;55512;50.102;19.958;2022-07-26T05:10:50;98015.20;;;20.20
68510;BMP180;55512;50.102;19.958;2022-07-26T05:13:15;98009.00;;;20.30
68510;BMP180;55512;50.102;19.958;2022-07-26T05:15:41;98006.60;;;20.40
68510;BMP180;55512;50.102;19.958;2022-07-26T05:18:08;98004.80;;;20.58
68510;BMP180;55512;50.102;19.958;2022-07-26T05:20:35;98013.20;;;20.70
68510;BMP180;55512;50.102;19.958;2022-07-26T05:23:01;98016.40;;;20.80
68510;BMP180;55512;50.102;19.958;2022-07-26T05:25:27;98015.20;;;20.90
68510;BMP180;55512;50.102;19.958;2022-07-26T05:27:53;98013.80;;;21.02
68510;BMP180;55512;50.102;19.958;2022-07-26T05:30:19;98018.40;;;21.10
68510;BMP180;55512;50.102;19.958;2022-07-26T05:32:44;98018.00;;;21.24
68510;BMP180;55512;50.102;19.958;2022-07-26T05:35:10;98018.00;;;21.36
68510;BMP180;55512;50.102;19.958;2022-07-26T05:37:36;98015.20;;;21.46
68510;BMP180;55512;50.102;19.958;2022-07-26T05:40:04;98016.40;;;21.58
68510;BMP180;55512;50.102;19.958;2022-07-26T05:42:30;98012.40;;;21.70
68510;BMP180;55512;50.102;19.958;2022-07-26T05:44:56;98011.40;;;21.80
68510;BMP180;55512;50.102;19.958;2022-07-26T05:47:21;98011.40;;;21.90
68510;BMP180;55512;50.102;19.958;2022-07-26T05:49:47;98008.40;;;22.08
68510;BMP180;55512;50.102;19.958;2022-07-26T05:52:13;98013.80;;;22.20
68510;BMP180;55512;50.102;19.958;2022-07-26T05:54:38;98015.80;;;22.36
68510;BMP180;55512;50.102;19.958;2022-07-26T05:57:04;98014.80;;;22.50
68510;BMP180;55512;50.102;19.958;2022-07-26T05:59:30;98018.80;;;22.70
68510;BMP180;55512;50.102;19.958;2022-07-26T06:01:56;98016.40;;;22.90
68510;BMP180;55512;50.102;19.958;2022-07-26T06:04:23;98018.80;;;23.10
68510;BMP180;55512;50.102;19.958;2022-07-26T06:06:48;98023.40;;;23.30
68510;BMP180;55512;50.102;19.958;2022-07-26T06:09:14;98034.80;;;23.40
68510;BMP180;55512;50.102;19.958;2022-07-26T06:11:41;98051.60;;;23.50
68510;BMP180;55512;50.102;19.958;2022-07-26T06:14:06;98068.40;;;23.50
68510;BMP180;55512;50.102;19.958;2022-07-26T06:16:32;98068.40;;;23.60
68510;BMP180;55512;50.102;19.958;2022-07-26T06:18:58;98066.60;;;23.60
68510;BMP180;55512;50.102;19.958;2022-07-26T06:21:23;98079.00;;;23.60
68510;BMP180;55512;50.102;19.958;2022-07-26T06:23:49;98071.20;;;23.50
68510;BMP180;55512;50.102;19.958;2022-07-26T06:26:16;98069.80;;;23.60
68510;BMP180;55512;50.102;19.958;2022-07-26T06:28:41;98064.20;;;23.60
68510;BMP180;55512;50.102;19.958;2022-07-26T06:31:09;98067.80;;;23.70
68510;BMP180;55512;50.102;19.958;2022-07-26T06:33:35;98075.40;;;23.76
68510;BMP180;55512;50.102;19.958;2022-07-26T06:36:00;98077.60;;;23.80
68510;BMP180;55512;50.102;19.958;2022-07-26T06:38:27;98077.00;;;23.80
68510;BMP180;55512;50.102;19.958;2022-07-26T06:40:52;98078.00;;;23.90
68510;BMP180;55512;50.102;19.958;2022-07-26T06:43:19;98082.40;;;24.10
68510;BMP180;55512;50.102;19.958;2022-07-26T06:45:45;98077.20;;;24.20
68510;BMP180;55512;50.102;19.958;2022-07-26T06:48:10;98095.40;;;24.30
68510;BMP180;55512;50.102;19.958;2022-07-26T06:50:36;98092.40;;;24.30
68510;BMP180;55512;50.102;19.958;2022-07-26T06:53:02;98093.20;;;24.30
68510;BMP180;55512;50.102;19.958;2022-07-26T06:55:27;98088.40;;;24.34
68510;BMP180;55512;50.102;19.958;2022-07-26T06:57:53;98082.80;;;24.40
68510;BMP180;55512;50.102;19.958;2022-07-26T07:00:18;98084.60;;;24.50
68510;BMP180;55512;50.102;19.958;2022-07-26T07:02:44;98089.60;;;24.68
68510;BMP180;55512;50.102;19.958;2022-07-26T07:05:09;98096.00;;;24.80
68510;BMP180;55512;50.102;19.958;2022-07-26T07:07:36;98099.20;;;24.90
68510;BMP180;55512;50.102;19.958;2022-07-26T07:10:04;98101.20;;;25.00
68510;BMP180;55512;50.102;19.958;2022-07-26T07:12:30;98100.00;;;25.18
68510;BMP180;55512;50.102;19.958;2022-07-26T07:14:56;98105.40;;;25.30
68510;BMP180;55512;50.102;19.958;2022-07-26T07:17:21;98098.20;;;25.40
68510;BMP180;55512;50.102;19.958;2022-07-26T07:19:47;98094.00;;;25.50
68510;BMP180;55512;50.102;19.958;2022-07-26T07:22:13;98087.00;;;25.60
68510;BMP180;55512;50.102;19.958;2022-07-26T07:24:40;98095.60;;;25.80
68510;BMP180;55512;50.102;19.958;2022-07-26T07:27:07;98094.20;;;25.90
68510;BMP180;55512;50.102;19.958;2022-07-26T07:29:32;98093.80;;;26.10
68510;BMP180;55512;50.102;19.958;2022-07-26T07:31:58;98107.60;;;26.20
68510;BMP180;55512;50.102;19.958;2022-07-26T07:34:24;98115.60;;;26.30
68510;BMP180;55512;50.102;19.958;2022-07-26T07:36:51;98124.20;;;26.40
68510;BMP180;55512;50.102;19.958;2022-07-26T07:39:17;98125.60;;;26.50
68510;BMP180;55512;50.102;19.958;2022-07-26T07:41:47;98132.60;;;26.50
68510;BMP180;55512;50.102;19.958;2022-07-26T07:44:14;98133.60;;;26.60
68510;BMP180;55512;50.102;19.958;2022-07-26T07:46:39;98136.00;;;26.70
68510;BMP180;55512;50.102;19.958;2022-07-26T07:49:05;98141.00;;;26.80
68510;BMP180;55512;50.102;19.958;2022-07-26T07:51:31;98149.40;;;26.82
68510;BMP180;55512;50.102;19.958;2022-07-26T07:53:58;98148.40;;;26.90
68510;BMP180;55512;50.102;19.958;2022-07-26T07:56:24;98162.60;;;26.98
68510;BMP180;55512;50.102;19.958;2022-07-26T07:58:50;98157.40;;;27.00
68510;BMP180;55512;50.102;19.958;2022-07-26T08:01:15;98167.60;;;27.00
68510;BMP180;55512;50.102;19.958;2022-07-26T08:03:41;98193.00;;;27.00
68510;BMP180;55512;50.102;19.958;2022-07-26T08:06:08;98172.40;;;26.90
68510;BMP180;55512;50.102;19.958;2022-07-26T08:08:35;98181.80;;;26.90
68510;BMP180;55512;50.102;19.958;2022-07-26T08:11:03;98204.60;;;26.90
68510;BMP180;55512;50.102;19.958;2022-07-26T08:13:29;98204.20;;;26.80
68510;BMP180;55512;50.102;19.958;2022-07-26T08:15:55;98197.00;;;26.80
68510;BMP180;55512;50.102;19.958;2022-07-26T08:18:22;98205.20;;;26.90
68510;BMP180;55512;50.102;19.958;2022-07-26T08:20:50;98215.20;;;27.00
68510;BMP180;55512;50.102;19.958;2022-07-26T08:23:15;98199.00;;;27.00
68510;BMP180;55512;50.102;19.958;2022-07-26T08:25:41;98220.80;;;27.10
68510;BMP180;55512;50.102;19.958;2022-07-26T08:28:06;98226.00;;;27.16
68510;BMP180;55512;50.102;19.958;2022-07-26T08:30:32;98220.40;;;27.20
68510;BMP180;55512;50.102;19.958;2022-07-26T08:32:59;98216.60;;;27.14
68510;BMP180;55512;50.102;19.958;2022-07-26T08:35:25;98237.20;;;27.20
68510;BMP180;55512;50.102;19.958;2022-07-26T08:37:50;98237.40;;;27.30
68510;BMP180;55512;50.102;19.958;2022-07-26T08:40:16;98233.60;;;27.40
68510;BMP180;55512;50.102;19.958;2022-07-26T08:42:55;98236.80;;;27.40
68510;BMP180;55512;50.102;19.958;2022-07-26T08:45:26;98239.80;;;27.42
68510;BMP180;55512;50.102;19.958;2022-07-26T08:47:53;98238.60;;;27.40
68510;BMP180;55512;50.102;19.958;2022-07-26T08:50:19;98248.20;;;27.40
68510;BMP180;55512;50.102;19.958;2022-07-26T08:52:45;98238.60;;;27.40
68510;BMP180;55512;50.102;19.958;2022-07-26T08:55:16;98250.60;;;27.50
68510;BMP180;55512;50.102;19.958;2022-07-26T08:57:42;98253.00;;;27.50
68510;BMP180;55512;50.102;19.958;2022-07-26T09:00:25;98266.60;;;27.50
68510;BMP180;55512;50.102;19.958;2022-07-26T09:02:54;98260.40;;;27.50
68510;BMP180;55512;50.102;19.958;2022-07-26T09:05:32;98283.60;;;27.50
68510;BMP180;55512;50.102;19.958;2022-07-26T09:08:01;98276.20;;;27.50
68510;BMP180;55512;50.102;19.958;2022-07-26T09:10:45;98275.00;;;27.50
68510;BMP180;55512;50.102;19.958;2022-07-26T09:13:11;98274.60;;;27.68
68510;BMP180;55512;50.102;19.958;2022-07-26T09:15:37;98290.60;;;27.72
68510;BMP180;55512;50.102;19.958;2022-07-26T09:18:02;98289.60;;;27.70
68510;BMP180;55512;50.102;19.958;2022-07-26T09:20:31;98292.60;;;27.56
68510;BMP180;55512;50.102;19.958;2022-07-26T09:23:08;98293.60;;;27.40
68510;BMP180;55512;50.102;19.958;2022-07-26T09:25:40;98298.60;;;27.50
68510;BMP180;55512;50.102;19.958;2022-07-26T09:28:26;98311.40;;;27.50
68510;BMP180;55512;50.102;19.958;2022-07-26T09:30:58;98297.00;;;27.40
68510;BMP180;55512;50.102;19.958;2022-07-26T09:33:24;98306.00;;;27.50
68510;BMP180;55512;50.102;19.958;2022-07-26T09:36:10;98305.80;;;27.60
68510;BMP180;55512;50.102;19.958;2022-07-26T09:41:29;98310.40;;;27.70
68510;BMP180;55512;50.102;19.958;2022-07-26T09:43:59;98329.60;;;27.70
68510;BMP180;55512;50.102;19.958;2022-07-26T09:46:27;98331.20;;;27.60
68510;BMP180;55512;50.102;19.958;2022-07-26T09:48:55;98330.80;;;27.50
68510;BMP180;55512;50.102;19.958;2022-07-26T09:51:42;98333.00;;;27.40
68510;BMP180;55512;50.102;19.958;2022-07-26T09:54:10;98335.20;;;27.30
68510;BMP180;55512;50.102;19.958;2022-07-26T09:56:47;98342.20;;;27.20
68510;BMP180;55512;50.102;19.958;2022-07-26T09:59:16;98339.00;;;27.10
68510;BMP180;55512;50.102;19.958;2022-07-26T10:01:43;98345.20;;;27.20
68510;BMP180;55512;50.102;19.958;2022-07-26T10:04:10;98349.40;;;27.10
68510;BMP180;55512;50.102;19.958;2022-07-26T10:06:35;98353.60;;;27.06
68510;BMP180;55512;50.102;19.958;2022-07-26T10:09:03;98346.60;;;27.00
68510;BMP180;55512;50.102;19.958;2022-07-26T10:11:39;98345.20;;;27.00
68510;BMP180;55512;50.102;19.958;2022-07-26T10:14:36;98350.40;;;27.10
68510;BMP180;55512;50.102;19.958;2022-07-26T10:20:03;98355.00;;;27.00
68510;BMP180;55512;50.102;19.958;2022-07-26T10:22:33;98360.20;;;27.00
68510;BMP180;55512;50.102;19.958;2022-07-26T10:27:46;98374.60;;;27.00
68510;BMP180;55512;50.102;19.958;2022-07-26T10:32:57;98370.80;;;26.90
68510;BMP180;55512;50.102;19.958;2022-07-26T10:38:09;98372.60;;;26.70
68510;BMP180;55512;50.102;19.958;2022-07-26T10:40:39;98382.00;;;26.70
68510;BMP180;55512;50.102;19.958;2022-07-26T10:43:19;98397.40;;;26.60
68510;BMP180;55512;50.102;19.958;2022-07-26T10:45:45;98385.40;;;26.50
68510;BMP180;55512;50.102;19.958;2022-07-26T10:48:13;98390.60;;;26.50
68510;BMP180;55512;50.102;19.958;2022-07-26T10:50:45;98396.20;;;26.40
68510;BMP180;55512;50.102;19.958;2022-07-26T10:53:24;98394.40;;;26.40
68510;BMP180;55512;50.102;19.958;2022-07-26T10:55:56;98400.60;;;26.20
68510;BMP180;55512;50.102;19.958;2022-07-26T10:58:25;98410.80;;;26.10
68510;BMP180;55512;50.102;19.958;2022-07-26T11:00:58;98405.00;;;25.88
68510;BMP180;55512;50.102;19.958;2022-07-26T11:03:43;98409.60;;;25.70
68510;BMP180;55512;50.102;19.958;2022-07-26T11:06:15;98424.20;;;25.60
68510;BMP180;55512;50.102;19.958;2022-07-26T11:08:43;98420.60;;;25.32
68510;BMP180;55512;50.102;19.958;2022-07-26T11:11:09;98435.40;;;25.10
68510;BMP180;55512;50.102;19.958;2022-07-26T11:13:34;98420.60;;;24.88
68510;BMP180;55512;50.102;19.958;2022-07-26T11:16:05;98420.20;;;24.70
68510;BMP180;55512;50.102;19.958;2022-07-26T11:18:35;98432.00;;;24.60
68510;BMP180;55512;50.102;19.958;2022-07-26T11:21:13;98436.20;;;24.50
68510;BMP180;55512;50.102;19.958;2022-07-26T11:23:47;98435.00;;;24.30
68510;BMP180;55512;50.102;19.958;2022-07-26T11:26:19;98423.40;;;24.20
68510;BMP180;55512;50.102;19.958;2022-07-26T11:29:00;98431.80;;;24.20
68510;BMP180;55512;50.102;19.958;2022-07-26T11:31:40;98443.20;;;24.10
68510;BMP180;55512;50.102;19.958;2022-07-26T11:34:18;98420.20;;;23.98
68510;BMP180;55512;50.102;19.958;2022-07-26T11:36:45;98434.00;;;24.00
68510;BMP180;55512;50.102;19.958;2022-07-26T11:39:14;98428.60;;;24.10
68510;BMP180;55512;50.102;19.958;2022-07-26T11:41:42;98431.20;;;24.16
68510;BMP180;55512;50.102;19.958;2022-07-26T11:44:28;98441.20;;;24.10
68510;BMP180;55512;50.102;19.958;2022-07-26T11:46:55;98439.20;;;24.00
68510;BMP180;55512;50.102;19.958;2022-07-26T11:49:25;98433.40;;;23.92
68510;BMP180;55512;50.102;19.958;2022-07-26T11:51:57;98433.20;;;23.90
68510;BMP180;55512;50.102;19.958;2022-07-26T11:54:46;98430.60;;;23.90
68510;BMP180;55512;50.102;19.958;2022-07-26T11:57:13;98424.40;;;23.90
68510;BMP180;55512;50.102;19.958;2022-07-26T11:59:39;98417.00;;;23.90
68510;BMP180;55512;50.102;19.958;2022-07-26T12:02:07;98418.20;;;23.90
68510;BMP180;55512;50.102;19.958;2022-07-26T12:04:42;98416.60;;;23.90
68510;BMP180;55512;50.102;19.958;2022-07-26T12:07:15;98422.60;;;24.00
68510;BMP180;55512;50.102;19.958;2022-07-26T12:15:03;98416.20;;;24.20
68510;BMP180;55512;50.102;19.958;2022-07-26T12:17:29;98417.60;;;24.20
68510;BMP180;55512;50.102;19.958;2022-07-26T12:20:09;98421.20;;;24.10
68510;BMP180;55512;50.102;19.958;2022-07-26T12:22:35;98414.00;;;24.00
68510;BMP180;55512;50.102;19.958;2022-07-26T12:25:00;98413.60;;;24.00
68510;BMP180;55512;50.102;19.958;2022-07-26T12:27:30;98416.40;;;23.96
68510;BMP180;55512;50.102;19.958;2022-07-26T12:30:14;98412.20;;;23.90
68510;BMP180;55512;50.102;19.958;2022-07-26T12:32:43;98406.20;;;23.80
68510;BMP180;55512;50.102;19.958;2022-07-26T12:35:17;98402.20;;;23.70
68510;BMP180;55512;50.102;19.958;2022-07-26T12:37:52;98398.40;;;23.80
68510;BMP180;55512;50.102;19.958;2022-07-26T12:40:27;98399.00;;;23.70
68510;BMP180;55512;50.102;19.958;2022-07-26T12:42:58;98405.60;;;23.60
68510;BMP180;55512;50.102;19.958;2022-07-26T12:45:27;98406.20;;;23.50
68510;BMP180;55512;50.102;19.958;2022-07-26T12:47:57;98406.20;;;23.48
68510;BMP180;55512;50.102;19.958;2022-07-26T12:50:25;98405.60;;;23.40
68510;BMP180;55512;50.102;19.958;2022-07-26T12:52:58;98405.00;;;23.40
68510;BMP180;55512;50.102;19.958;2022-07-26T12:55:24;98412.00;;;23.32
68510;BMP180;55512;50.102;19.958;2022-07-26T12:57:50;98412.80;;;23.30
68510;BMP180;55512;50.102;19.958;2022-07-26T13:00:16;98413.20;;;23.20
68510;BMP180;55512;50.102;19.958;2022-07-26T13:02:45;98414.40;;;23.00
68510;BMP180;55512;50.102;19.958;2022-07-26T13:05:13;98415.60;;;22.92
68510;BMP180;55512;50.102;19.958;2022-07-26T13:07:39;98418.40;;;22.90
68510;BMP180;55512;50.102;19.958;2022-07-26T13:10:08;98416.80;;;22.90
68510;BMP180;55512;50.102;19.958;2022-07-26T13:12:35;98413.40;;;22.90
68510;BMP180;55512;50.102;19.958;2022-07-26T13:15:01;98417.80;;;22.92
68510;BMP180;55512;50.102;19.958;2022-07-26T13:17:27;98415.60;;;23.00
68510;BMP180;55512;50.102;19.958;2022-07-26T13:19:52;98417.20;;;23.00
68510;BMP180;55512;50.102;19.958;2022-07-26T13:22:18;98421.80;;;23.10
68510;BMP180;55512;50.102;19.958;2022-07-26T13:24:43;98429.40;;;23.10
68510;BMP180;55512;50.102;19.958;2022-07-26T13:27:09;98432.40;;;23.10
68510;BMP180;55512;50.102;19.958;2022-07-26T13:29:35;98436.20;;;23.18
68510;BMP180;55512;50.102;19.958;2022-07-26T13:32:03;98427.40;;;23.10
68510;BMP180;55512;50.102;19.958;2022-07-26T13:34:29;98435.20;;;23.10
68510;BMP180;55512;50.102;19.958;2022-07-26T13:36:56;98441.00;;;22.98
68510;BMP180;55512;50.102;19.958;2022-07-26T13:39:22;98459.80;;;22.78
68510;BMP180;55512;50.102;19.958;2022-07-26T13:41:48;98465.20;;;22.50
68510;BMP180;55512;50.102;19.958;2022-07-26T13:44:13;98479.20;;;22.44
68510;BMP180;55512;50.102;19.958;2022-07-26T13:46:39;98484.00;;;22.38
68510;BMP180;55512;50.102;19.958;2022-07-26T13:49:05;98485.00;;;22.14
68510;BMP180;55512;50.102;19.958;2022-07-26T13:51:36;98488.80;;;21.70
68510;BMP180;55512;50.102;19.958;2022-07-26T13:54:32;98482.80;;;21.10
68510;BMP180;55512;50.102;19.958;2022-07-26T13:57:00;98481.20;;;20.74
68510;BMP180;55512;50.102;19.958;2022-07-26T13:59:27;98474.20;;;20.50
68510;BMP180;55512;50.102;19.958;2022-07-26T14:01:54;98486.20;;;20.40
68510;BMP180;55512;50.102;19.958;2022-07-26T14:04:20;98490.80;;;20.34
68510;BMP180;55512;50.102;19.958;2022-07-26T14:06:46;98488.60;;;20.40
68510;BMP180;55512;50.102;19.958;2022-07-26T14:09:13;98488.60;;;20.46
68510;BMP180;55512;50.102;19.958;2022-07-26T14:11:40;98494.20;;;20.50
68510;BMP180;55512;50.102;19.958;2022-07-26T14:14:06;98497.60;;;20.60
68510;BMP180;55512;50.102;19.958;2022-07-26T14:16:33;98505.20;;;20.80
68510;BMP180;55512;50.102;19.958;2022-07-26T14:18:59;98502.80;;;20.96